Time;durP1;ratioP1;P1;durP2;ratioP2;P2;SDS_P1;SDS_P2;PMS_P1;PMS_P2;Temp;Humidity;BMP_temperature;BMP_pressure;BME280_temperature;BME280_humidity;BME280_pressure;Samples;Min_cycle;Max_cycle;Signal;HPM_P1;HPM_P2
2022/11/24 00:02:14;;;;;;;17.42;9.90;;;;;;;2.38;100.00;153137.97;5016483;28;20078;-76
2022/11/24 00:04:39;;;;;;;19.63;9.73;;;;;;;2.36;100.00;153134.16;5007492;28;20049;-77
2022/11/24 00:07:05;;;;;;;16.23;8.75;;;;;;;2.48;100.00;153164.75;5010730;28;20037;-76
2022/11/24 00:09:36;;;;;;;17.17;9.45;;;;;;;2.43;100.00;153150.72;4986147;28;20095;-78
2022/11/24 00:12:03;;;;;;;19.38;9.85;;;;;;;2.41;100.00;153145.59;5002814;28;20808;-77
2022/11/24 00:14:30;;;;;;;20.90;9.95;;;;;;;2.43;100.00;153152.03;4975629;28;20056;-76
2022/11/24 00:17:17;;;;;;;17.95;9.23;;;;;;;2.35;100.00;153131.56;5031472;23;21191;-79
2022/11/24 00:20:01;;;;;;;18.17;9.45;;;;;;;2.26;100.00;153109.91;5009234;28;20124;-78
2022/11/24 00:23:20;;;;;;;19.45;9.18;;;;;;;2.38;100.00;153137.97;5016779;28;20034;-79
2022/11/24 00:25:46;;;;;;;20.67;10.00;;;;;;;2.37;100.00;153135.41;5030145;28;20041;-77
2022/11/24 00:28:47;;;;;;;18.55;9.60;;;;;;;2.43;100.00;153152.03;5005976;28;20033;-76
2022/11/24 00:31:48;;;;;;;16.40;9.63;;;;;;;2.50;100.00;153169.84;5014624;28;20034;-77
2022/11/24 00:34:37;;;;;;;20.95;9.90;;;;;;;2.32;100.00;153125.22;4972097;28;20522;-78
2022/11/24 00:37:13;;;;;;;15.90;9.05;;;;;;;2.36;100.00;153134.16;4997033;28;20038;-79
2022/11/24 00:39:53;;;;;;;21.05;10.55;;;;;;;2.22;100.00;153099.66;4992109;28;20049;-79
2022/11/24 00:42:31;;;;;;;23.85;10.07;;;;;;;2.41;100.00;153146.94;5003680;28;20068;-78
2022/11/24 00:45:25;;;;;;;21.98;11.05;;;;;;;2.30;100.00;153118.84;4992205;28;20038;-78
2022/11/24 00:48:37;;;;;;;19.52;10.32;;;;;;;2.31;100.00;153122.66;4983024;28;20049;-77
2022/11/24 00:55:26;;;;;;;22.55;10.15;;;;;;;2.31;100.00;153121.38;5000849;28;20051;-77
2022/11/24 00:57:51;;;;;;;17.38;9.60;;;;;;;2.36;100.00;153132.88;4974945;28;20030;-77
2022/11/24 01:00:17;;;;;;;21.13;10.63;;;;;;;2.53;100.00;153176.25;4980050;28;20042;-78
2022/11/24 01:02:57;;;;;;;21.40;9.65;;;;;;;2.59;100.00;153190.28;4998927;28;20573;-78
2022/11/24 01:06:08;;;;;;;21.75;10.00;;;;;;;2.59;100.00;153190.28;4989295;28;20117;-77
2022/11/24 01:09:05;;;;;;;18.48;10.00;;;;;;;2.41;100.00;153145.59;4979528;28;20080;-79
2022/11/24 01:12:19;;;;;;;20.30;9.73;;;;;;;2.61;100.00;153196.66;4972189;28;20038;-79
2022/11/24 01:14:25;;;;;;;20.15;9.93;;;;;;;2.63;100.00;153200.50;4976616;28;20111;-78
2022/11/24 01:17:19;;;;;;;26.73;10.45;;;;;;;2.40;100.00;153144.34;4998234;28;20145;-77
2022/11/24 01:19:50;;;;;;;21.55;10.90;;;;;;;2.38;100.00;153137.97;4987538;28;20061;-77
2022/11/24 01:22:58;;;;;;;17.70;10.77;;;;;;;2.43;100.00;153152.03;5011638;28;20030;-78
2022/11/24 01:26:40;;;;;;;18.38;10.13;;;;;;;2.65;100.00;153205.59;4989176;28;20068;-79
2022/11/24 01:29:06;;;;;;;20.45;10.40;;;;;;;2.55;100.00;153181.34;4999697;28;20029;-79
2022/11/24 01:32:04;;;;;;;20.85;11.10;;;;;;;2.64;100.00;153204.31;4975994;28;20417;-78
2022/11/24 01:35:16;;;;;;;21.77;10.90;;;;;;;2.65;100.00;153205.59;4976597;28;20050;-79
2022/11/24 01:38:04;;;;;;;20.33;10.45;;;;;;;2.44;100.00;153154.53;5009868;28;20054;-79
2022/11/24 01:41:29;;;;;;;19.33;10.68;;;;;;;2.53;100.00;153177.53;4985999;28;20045;-78
2022/11/24 01:44:50;;;;;;;19.65;10.15;;;;;;;2.56;100.00;153183.88;4906567;29;20074;-79
2022/11/24 01:47:46;;;;;;;20.83;11.25;;;;;;;2.57;100.00;153185.19;4888830;29;20052;-78
2022/11/24 01:50:40;;;;;;;23.27;11.27;;;;;;;2.52;100.00;153173.69;4899871;29;20044;-79
2022/11/24 02:00:36;;;;;;;21.75;10.85;;;;;;;2.52;100.00;153175.00;4954465;28;20046;-79
2022/11/24 02:03:44;;;;;;;19.67;10.15;;;;;;;2.58;100.00;153189.03;4921874;29;20783;-77
2022/11/24 02:07:04;;;;;;;21.23;9.98;;;;;;;2.53;100.00;153177.53;5009951;28;20080;-78
2022/11/24 02:13:04;;;;;;;18.15;10.48;;;;;;;2.68;100.00;153213.25;4981279;28;20156;-78
2022/11/24 02:15:29;;;;;;;18.67;9.55;;;;;;;2.71;100.00;153222.19;4991389;28;20116;-78
2022/11/24 02:17:57;;;;;;;16.20;10.20;;;;;;;2.75;100.00;153229.81;4981991;28;20045;-77
2022/11/24 02:20:24;;;;;;;22.95;10.02;;;;;;;2.83;100.00;153250.28;4975358;28;20057;-77
2022/11/24 02:23:00;;;;;;;17.75;9.45;;;;;;;2.83;100.00;153251.53;5003885;28;20065;-77
2022/11/24 02:25:46;;;;;;;22.15;10.05;;;;;;;2.90;100.00;153269.41;4975278;28;20084;-78
2022/11/24 02:28:16;;;;;;;17.35;8.40;;;;;;;2.98;100.00;153287.28;4992052;28;20057;-76
2022/11/24 02:30:41;;;;;;;19.85;9.10;;;;;;;2.96;100.00;153283.47;4998434;28;20049;-76
2022/11/24 02:33:08;;;;;;;18.60;9.60;;;;;;;2.91;100.00;153270.69;4980792;28;20025;-76
2022/11/24 02:35:34;;;;;;;18.63;10.05;;;;;;;2.84;100.00;153254.06;4983676;28;20088;-77
2022/11/24 02:38:00;;;;;;;21.30;9.70;;;;;;;2.78;100.00;153237.50;4985724;28;20042;-78
2022/11/24 02:40:29;;;;;;;16.40;9.77;;;;;;;2.70;100.00;153219.63;5005802;28;20026;-76
2022/11/24 02:43:00;;;;;;;24.98;10.18;;;;;;;2.65;100.00;153206.84;4993328;28;20674;-78
2022/11/24 02:45:27;;;;;;;22.95;9.68;;;;;;;2.71;100.00;153220.88;4990120;28;20794;-77
2022/11/24 02:47:53;;;;;;;21.30;9.70;;;;;;;2.60;100.00;153194.13;4993531;28;20239;-80
2022/11/24 02:50:21;;;;;;;21.10;10.00;;;;;;;2.52;100.00;153175.00;4963440;28;20042;-79
2022/11/24 02:52:47;;;;;;;22.88;11.13;;;;;;;2.47;100.00;153162.22;4991976;28;20044;-79
2022/11/24 02:55:23;;;;;;;22.65;11.10;;;;;;;2.49;100.00;153167.31;4995258;28;20037;-78
2022/11/24 02:57:55;;;;;;;24.83;11.35;;;;;;;2.19;100.00;153090.78;4988162;28;20099;-79
2022/11/24 03:00:25;;;;;;;21.98;11.02;;;;;;;2.29;100.00;153117.53;4983631;28;20053;-78
2022/11/24 03:03:52;;;;;;;22.73;11.02;;;;;;;2.00;100.00;153043.56;4986535;28;20706;-79
2022/11/24 03:06:45;;;;;;;19.45;10.75;;;;;;;2.00;100.00;153044.84;4981899;28;20100;-78
2022/11/24 03:12:03;;;;;;;20.98;10.43;;;;;;;1.99;100.00;153041.03;4987914;28;20109;-78
2022/11/24 03:14:32;;;;;;;25.48;11.40;;;;;;;1.90;100.00;153020.63;4975526;28;20066;-78
2022/11/24 03:17:05;;;;;;;24.73;11.70;;;;;;;1.89;100.00;153018.06;4974177;28;20684;-79
2022/11/24 03:19:38;;;;;;;19.45;11.82;;;;;;;1.90;100.00;153020.63;4969661;28;20054;-78
2022/11/24 03:22:14;;;;;;;;;;;;;;;;;;;;;
2022/11/24 03:25:14;;;;;;;27.10;11.98;;;;;;;1.83;100.00;153002.78;4968030;28;20126;-77
2022/11/24 03:28:21;;;;;;;24.27;11.00;;;;;;;1.76;100.00;152984.91;4981330;28;20038;-80
2022/11/24 03:30:51;;;;;;;22.80;10.88;;;;;;;1.76;100.00;152984.91;4988416;28;20034;-79
2022/11/24 03:33:17;;;;;;;20.92;11.27;;;;;;;1.77;100.00;152987.44;4990367;28;20038;-77
2022/11/24 03:35:43;;;;;;;19.90;10.85;;;;;;;1.64;100.00;152955.59;4975755;28;20045;-78
2022/11/24 03:38:18;;;;;;;23.95;11.57;;;;;;;1.70;100.00;152970.88;4958551;28;20208;-79
2022/11/24 03:40:44;;;;;;;25.15;12.15;;;;;;;1.86;100.00;153009.13;4979901;28;20046;-76
2022/11/24 03:43:10;;;;;;;19.30;11.63;;;;;;;1.95;100.00;153032.09;4986459;28;20049;-76
2022/11/24 03:45:35;;;;;;;27.02;12.40;;;;;;;2.07;100.00;153062.72;4968483;28;20038;-77
2022/11/24 03:48:01;;;;;;;21.50;12.23;;;;;;;2.25;100.00;153106.09;4998583;28;20030;-77
2022/11/24 03:50:26;;;;;;;24.02;12.27;;;;;;;2.27;100.00;153112.44;4998130;28;20046;-77
2022/11/24 03:52:52;;;;;;;25.05;13.13;;;;;;;2.32;100.00;153125.22;4986621;28;20038;-77
2022/11/24 03:55:17;;;;;;;22.40;12.85;;;;;;;2.38;100.00;153139.25;4984956;28;20046;-77
2022/11/24 03:57:43;;;;;;;19.67;11.68;;;;;;;2.51;100.00;153171.16;4961813;28;20038;-77
2022/11/24 04:00:10;;;;;;;20.25;12.38;;;;;;;2.46;100.00;153159.66;4989999;28;20041;-77
2022/11/24 04:02:36;;;;;;;29.90;11.82;;;;;;;2.58;100.00;153187.72;4959148;28;20694;-76
2022/11/24 04:05:03;;;;;;;25.02;11.82;;;;;;;2.71;100.00;153220.88;4993675;28;20034;-76
2022/11/24 04:07:29;;;;;;;22.52;11.93;;;;;;;2.64;100.00;153203.06;4961991;28;20480;-76
2022/11/24 04:09:54;;;;;;;21.33;12.20;;;;;;;2.66;100.00;153209.44;4974743;28;20069;-77
2022/11/24 04:15:04;;;;;;;21.65;12.15;;;;;;;2.72;100.00;153223.47;4975452;28;20031;-78
2022/11/24 04:17:30;;;;;;;25.25;13.32;;;;;;;2.72;100.00;153223.47;4961474;28;20046;-78
2022/11/24 04:19:55;;;;;;;21.58;11.85;;;;;;;2.75;100.00;153229.81;4974445;28;20045;-77
2022/11/24 04:22:21;;;;;;;23.42;13.38;;;;;;;2.77;100.00;153234.94;4989471;28;20042;-78
2022/11/24 04:24:46;;;;;;;30.40;12.05;;;;;;;2.81;100.00;153246.44;4972694;28;20068;-77
2022/11/24 04:27:12;;;;;;;20.05;11.35;;;;;;;2.80;100.00;153243.88;4974468;28;20038;-78
2022/11/24 04:29:38;;;;;;;21.73;11.77;;;;;;;2.79;100.00;153241.34;4966220;28;20101;-77
2022/11/24 04:32:04;;;;;;;23.30;12.27;;;;;;;2.77;100.00;153236.25;4975404;28;20038;-77
2022/11/24 04:34:29;;;;;;;19.70;12.02;;;;;;;2.80;100.00;153242.59;4978071;28;20377;-79
2022/11/24 04:36:55;;;;;;;26.48;12.10;;;;;;;2.82;100.00;153248.97;4957996;28;20777;-77
2022/11/24 04:39:20;;;;;;;23.58;11.50;;;;;;;2.82;100.00;153248.97;4986219;28;20054;-79
2022/11/24 04:41:47;;;;;;;21.63;11.75;;;;;;;2.88;100.00;153264.31;4986578;28;20030;-80
2022/11/24 04:44:12;;;;;;;23.02;11.35;;;;;;;2.87;100.00;153261.75;4989642;28;20068;-76
2022/11/24 04:46:38;;;;;;;22.15;11.38;;;;;;;2.89;100.00;153265.56;4975080;28;20038;-78
2022/11/24 04:49:04;;;;;;;22.45;12.75;;;;;;;2.88;100.00;153264.31;4976952;28;20044;-78
2022/11/24 04:51:30;;;;;;;21.60;11.45;;;;;;;2.90;100.00;153269.41;4974348;28;20054;-80
2022/11/24 04:53:56;;;;;;;20.45;11.27;;;;;;;2.95;100.00;153279.63;4958836;28;20041;-78
2022/11/24 04:56:21;;;;;;;21.85;12.00;;;;;;;2.94;100.00;153278.34;4967123;28;20038;-78
2022/11/24 04:58:48;;;;;;;23.70;10.95;;;;;;;3.05;100.00;153305.13;4975805;28;20045;-76
2022/11/24 05:01:13;;;;;;;18.10;10.60;;;;;;;3.05;100.00;153305.13;4973622;28;20034;-77
2022/11/24 05:03:39;;;;;;;23.77;11.68;;;;;;;3.01;100.00;153294.91;4973236;28;20125;-77
2022/11/24 05:06:07;;;;;;;20.05;11.35;;;;;;;2.98;100.00;153288.56;4975076;28;20062;-79
2022/11/24 05:08:34;;;;;;;18.60;11.00;;;;;;;2.93;100.00;153277.03;4980812;28;20480;-79
2022/11/24 05:11:06;;;;;;;27.00;11.52;;;;;;;2.99;100.00;153291.09;4984116;28;20134;-78
2022/11/24 05:13:32;;;;;;;19.85;11.43;;;;;;;2.95;100.00;153279.63;4973727;28;20031;-76
2022/11/24 05:15:58;;;;;;;19.42;12.07;;;;;;;2.97;100.00;153285.97;4990300;28;20100;-76
2022/11/24 05:18:24;;;;;;;18.33;10.95;;;;;;;3.02;100.00;153298.75;4974214;28;20485;-76
2022/11/24 05:20:50;;;;;;;20.73;10.48;;;;;;;3.03;100.00;153300.03;4967433;28;20034;-77
2022/11/24 05:23:16;;;;;;;25.50;11.90;;;;;;;2.99;100.00;153289.81;4985967;28;20046;-78
2022/11/24 05:25:41;;;;;;;20.30;11.00;;;;;;;3.01;100.00;153296.19;4973114;28;20504;-76
2022/11/24 05:28:08;;;;;;;21.65;10.85;;;;;;;3.04;100.00;153302.59;5005558;28;20030;-78
2022/11/24 05:30:37;;;;;;;23.70;11.10;;;;;;;3.02;100.00;153298.75;4957622;28;20042;-78
2022/11/24 05:33:07;;;;;;;22.10;11.05;;;;;;;3.02;100.00;153298.75;4971051;28;20129;-76
2022/11/24 05:35:35;;;;;;;18.83;10.18;;;;;;;3.07;100.00;153311.53;4975427;28;20043;-76
2022/11/24 05:38:01;;;;;;;21.00;10.07;;;;;;;3.09;100.00;153316.63;4971309;28;20053;-78
2022/11/24 05:40:27;;;;;;;23.05;10.35;;;;;;;3.15;100.00;153329.41;4981662;28;20026;-80
2022/11/24 05:42:53;;;;;;;26.48;10.90;;;;;;;3.18;100.00;153337.03;4957063;28;20470;-76
2022/11/24 05:45:20;;;;;;;18.63;10.73;;;;;;;3.17;100.00;153334.53;4963150;28;20038;-78
2022/11/24 05:47:47;;;;;;;24.75;11.52;;;;;;;3.17;100.00;153334.53;4954472;28;20481;-78
2022/11/24 05:50:14;;;;;;;26.08;11.95;;;;;;;3.14;100.00;153328.09;4956662;28;20041;-78
2022/11/24 05:52:40;;;;;;;25.98;10.63;;;;;;;3.17;100.00;153334.53;4972293;28;20586;-77
2022/11/24 05:55:08;;;;;;;20.92;10.88;;;;;;;3.22;100.00;153347.25;4956493;28;20042;-76
2022/11/24 05:57:33;;;;;;;18.00;10.45;;;;;;;3.19;100.00;153339.63;5000500;28;20041;-78
2022/11/24 05:59:59;;;;;;;24.02;11.43;;;;;;;3.17;100.00;153335.78;4973741;28;20034;-78
2022/11/24 06:02:25;;;;;;;30.08;11.98;;;;;;;3.18;100.00;153337.03;4988849;28;20381;-78
2022/11/24 06:04:51;;;;;;;24.77;11.27;;;;;;;3.17;100.00;153335.78;4987885;28;20042;-77
2022/11/24 06:07:17;;;;;;;27.63;12.65;;;;;;;3.14;100.00;153326.84;4971120;28;20050;-77
2022/11/24 06:09:43;;;;;;;24.80;12.27;;;;;;;3.16;100.00;153331.94;4956666;28;20117;-77
2022/11/24 06:12:11;;;;;;;23.20;11.43;;;;;;;3.18;100.00;153337.03;4983889;28;20034;-78
2022/11/24 06:14:37;;;;;;;31.92;13.90;;;;;;;3.16;100.00;153331.94;4972650;28;20037;-79
2022/11/24 06:17:04;;;;;;;25.50;13.05;;;;;;;3.20;100.00;153342.16;4973708;28;20030;-79
2022/11/24 06:19:29;;;;;;;23.58;13.43;;;;;;;3.18;100.00;153338.31;4972874;28;20037;-78
2022/11/24 06:21:55;;;;;;;26.67;12.75;;;;;;;3.19;100.00;153340.88;4982648;28;20046;-78
2022/11/24 06:24:21;;;;;;;22.58;11.85;;;;;;;3.17;100.00;153334.53;4989157;28;20129;-78
2022/11/24 06:26:46;;;;;;;20.80;11.82;;;;;;;3.10;100.00;153317.91;4969744;28;20042;-79
2022/11/24 06:29:12;;;;;;;24.23;11.30;;;;;;;3.09;100.00;153316.63;4971932;28;20736;-79
2022/11/24 06:31:37;;;;;;;34.00;12.55;;;;;;;2.98;100.00;153288.56;4986343;28;20096;-78
2022/11/24 06:34:09;;;;;;;22.80;11.88;;;;;;;2.96;100.00;153283.47;4986284;28;20045;-77
2022/11/24 06:36:35;;;;;;;25.90;12.35;;;;;;;2.92;100.00;153273.25;4986211;28;20066;-79
2022/11/24 06:39:01;;;;;;;21.35;11.20;;;;;;;2.80;100.00;153242.59;4966688;28;20084;-78
2022/11/24 06:41:27;;;;;;;28.30;13.00;;;;;;;2.71;100.00;153220.88;4987868;28;20027;-81
2022/11/24 06:43:52;;;;;;;24.02;13.32;;;;;;;2.79;100.00;153240.03;4973774;28;20038;-77
2022/11/24 06:46:19;;;;;;;19.60;12.20;;;;;;;2.83;100.00;153250.28;4967970;28;20053;-76
2022/11/24 06:48:46;;;;;;;25.65;13.68;;;;;;;2.85;100.00;153256.63;4989440;28;20066;-76
2022/11/24 06:51:11;;;;;;;30.55;16.35;;;;;;;2.85;100.00;153256.63;4973268;28;20120;-77
2022/11/24 06:53:38;;;;;;;32.20;15.65;;;;;;;2.94;100.00;153278.34;4976391;28;20645;-77
2022/11/24 06:56:08;;;;;;;33.00;16.63;;;;;;;2.82;100.00;153247.69;4989332;28;20058;-78
2022/11/24 06:58:34;;;;;;;33.05;16.88;;;;;;;2.83;100.00;153251.53;4959207;28;20034;-78
2022/11/24 07:00:59;;;;;;;40.30;20.92;;;;;;;2.80;100.00;153243.88;4974222;28;20038;-79
2022/11/24 07:03:25;;;;;;;44.60;22.70;;;;;;;2.80;100.00;153243.88;4973454;28;20511;-78
2022/11/24 07:05:56;;;;;;;34.83;19.40;;;;;;;2.81;100.00;153246.44;4974390;28;20038;-76
2022/11/24 07:08:22;;;;;;;35.05;18.45;;;;;;;2.79;100.00;153240.03;4973150;28;20042;-78
2022/11/24 07:10:47;;;;;;;34.03;15.32;;;;;;;2.71;100.00;153220.88;4975049;28;20046;-79
2022/11/24 07:13:13;;;;;;;27.20;14.35;;;;;;;2.75;100.00;153231.13;4970782;28;20066;-79
2022/11/24 07:15:38;;;;;;;26.40;15.07;;;;;;;2.77;100.00;153234.94;4974591;28;20038;-79
2022/11/24 07:18:04;;;;;;;28.58;13.75;;;;;;;2.74;100.00;153228.56;4969925;28;20034;-77
2022/11/24 07:20:29;;;;;;;35.15;15.00;;;;;;;2.80;100.00;153242.59;4958015;28;20038;-76
2022/11/24 07:22:56;;;;;;;30.25;14.05;;;;;;;2.78;100.00;153238.75;4959058;28;20045;-79
2022/11/24 07:25:22;;;;;;;21.98;12.55;;;;;;;2.78;100.00;153238.75;4989692;28;20050;-79
2022/11/24 07:27:47;;;;;;;27.42;13.43;;;;;;;2.72;100.00;153223.47;4984463;28;20121;-78
2022/11/24 07:30:13;;;;;;;23.58;13.50;;;;;;;2.71;100.00;153220.88;4956851;28;20113;-79
2022/11/24 07:32:38;;;;;;;30.67;14.10;;;;;;;2.67;100.00;153211.94;4969116;28;20082;-78
2022/11/24 07:35:04;;;;;;;27.75;13.05;;;;;;;2.58;100.00;153187.72;4988027;28;20046;-77
2022/11/24 07:37:30;;;;;;;30.52;13.75;;;;;;;2.56;100.00;153183.88;4959808;28;20041;-77
2022/11/24 07:39:55;;;;;;;28.98;13.95;;;;;;;2.52;100.00;153175.00;4960818;28;20038;-77
2022/11/24 07:42:21;;;;;;;34.92;14.13;;;;;;;2.48;100.00;153163.47;5005973;28;20066;-78
2022/11/24 07:44:47;;;;;;;28.50;12.93;;;;;;;2.53;100.00;153176.25;4972187;28;20034;-78
2022/11/24 07:47:12;;;;;;;32.25;13.85;;;;;;;2.65;100.00;153205.59;4987606;28;20030;-77
2022/11/24 07:49:38;;;;;;;37.92;16.25;;;;;;;2.74;100.00;153228.56;4970931;28;20500;-76
2022/11/24 07:52:04;;;;;;;39.65;15.18;;;;;;;2.84;100.00;153254.06;4973702;28;20539;-79
2022/11/24 07:54:30;;;;;;;37.10;16.17;;;;;;;2.94;100.00;153278.34;4956555;28;20056;-79
2022/11/24 07:56:56;;;;;;;37.30;15.82;;;;;;;2.98;100.00;153287.28;4950247;28;20062;-77
2022/11/24 07:59:21;;;;;;;38.50;14.88;;;;;;;3.08;100.00;153314.06;4960915;28;20130;-77
2022/11/24 08:01:47;;;;;;;26.52;14.10;;;;;;;3.10;100.00;153319.16;4973850;28;20473;-79
2022/11/24 08:04:12;;;;;;;31.42;14.85;;;;;;;3.18;100.00;153086.28;4971648;28;20030;-79
2022/11/24 08:06:38;;;;;;;29.13;14.77;;;;;;;3.24;100.00;152462.31;4971785;28;20050;-79
2022/11/24 08:09:03;;;;;;;31.48;14.57;;;;;;;3.30;100.00;151497.03;4971113;28;20526;-76
2022/11/24 08:11:31;;;;;;;37.85;14.60;;;;;;;3.34;100.00;151130.50;4973954;28;20042;-81
2022/11/24 08:13:57;;;;;;;33.45;14.77;;;;;;;3.36;100.00;150283.94;4985733;28;20050;-74
2022/11/24 08:16:23;;;;;;;33.45;14.93;;;;;;;3.44;100.00;149334.16;4991699;28;20043;-77
2022/11/24 08:18:50;;;;;;;31.52;14.90;;;;;;;3.50;100.00;147945.31;4991362;28;20072;-77
2022/11/24 08:21:16;;;;;;;30.80;14.15;;;;;;;3.54;100.00;147547.25;4989943;28;20034;-78
2022/11/24 08:23:41;;;;;;;39.55;15.85;;;;;;;3.61;100.00;145720.41;4963111;28;20396;-76
2022/11/24 08:26:12;;;;;;;32.25;14.35;;;;;;;3.70;100.00;144735.16;5006337;28;20088;-79
2022/11/24 08:28:38;;;;;;;34.97;15.07;;;;;;;3.74;100.00;144743.56;4981173;28;20058;-77
2022/11/24 08:31:12;;;;;;;28.85;13.68;;;;;;;3.81;100.00;143752.25;4972557;28;20035;-78
2022/11/24 08:33:39;;;;;;;30.05;13.18;;;;;;;3.92;100.00;142770.38;4965839;28;20057;-77
2022/11/24 08:36:07;;;;;;;30.45;13.93;;;;;;;3.98;100.00;142113.41;4965669;28;20141;-78
2022/11/24 08:38:33;;;;;;;29.08;13.02;;;;;;;3.99;100.00;141780.16;4980665;28;20086;-77
2022/11/24 08:41:00;;;;;;;31.92;13.18;;;;;;;4.02;100.00;141452.84;4988719;28;20511;-78
2022/11/24 08:43:26;;;;;;;30.13;13.35;;;;;;;4.10;100.00;141134.88;4992311;28;20034;-77
2022/11/24 08:45:51;;;;;;;31.60;13.00;;;;;;;4.10;100.00;141471.63;4961759;28;20037;-78
2022/11/24 08:48:17;;;;;;;29.63;12.55;;;;;;;4.19;100.00;141155.97;4974554;28;20034;-79
2022/11/24 08:50:42;;;;;;;26.13;12.88;;;;;;;4.23;100.00;141165.34;4961000;28;20054;-78
2022/11/24 08:53:08;;;;;;;27.77;12.00;;;;;;;4.25;100.00;141504.53;4960109;28;20050;-76
2022/11/24 08:55:33;;;;;;;30.52;12.43;;;;;;;4.28;100.00;142183.03;4969803;28;20061;-78
2022/11/24 08:57:59;;;;;;;34.00;12.23;;;;;;;4.25;100.00;143183.25;4976202;28;20117;-77
2022/11/24 09:00:24;;;;;;;28.33;11.40;;;;;;;4.29;100.00;144536.31;4990668;28;20406;-77
2022/11/24 09:02:57;;;;;;;31.75;12.10;;;;;;;4.32;100.00;144542.38;4975598;28;20488;-77
2022/11/24 09:05:24;;;;;;;30.23;11.20;;;;;;;4.34;100.00;144548.34;4991543;28;20078;-77
2022/11/24 09:07:50;;;;;;;29.50;11.57;;;;;;;4.34;100.00;145921.34;4974645;28;20064;-78
2022/11/24 09:10:16;;;;;;;25.25;11.27;;;;;;;4.37;100.00;146606.16;4975052;28;20453;-78
2022/11/24 09:12:46;;;;;;;32.65;11.63;;;;;;;4.48;100.00;145926.41;4960848;28;20838;-78
2022/11/24 09:15:13;;;;;;;29.63;11.98;;;;;;;4.56;100.00;145667.56;4985006;28;20104;-77
2022/11/24 09:17:39;;;;;;;25.90;11.68;;;;;;;4.66;100.00;146064.81;4972164;28;20034;-78
2022/11/24 09:20:05;;;;;;;32.20;11.18;;;;;;;4.77;100.00;147498.91;4987542;28;20092;-76
2022/11/24 09:22:31;;;;;;;28.23;10.43;;;;;;;4.74;100.00;151838.44;4977651;28;20520;-78
2022/11/24 09:24:56;;;;;;;24.45;9.95;;;;;;;4.77;100.00;153734.28;4981328;28;20038;-78
2022/11/24 09:27:22;;;;;;;23.98;9.60;;;;;;;4.79;100.00;153739.41;4974416;28;20049;-76
2022/11/24 09:29:48;;;;;;;28.70;9.80;;;;;;;4.85;100.00;153754.72;4980997;28;20038;-77
2022/11/24 09:32:13;;;;;;;27.45;9.93;;;;;;;4.89;100.00;153763.66;4972439;28;20034;-77
2022/11/24 09:34:39;;;;;;;23.95;10.43;;;;;;;4.92;100.00;153771.34;4975403;28;20030;-78
2022/11/24 09:37:05;;;;;;;29.42;11.20;;;;;;;5.00;100.00;153790.53;4959653;28;20030;-76
2022/11/24 09:39:30;;;;;;;24.88;10.07;;;;;;;5.00;100.00;153791.78;4973837;28;20053;-76
2022/11/24 09:42:16;;;;;;;32.35;10.35;;;;;;;5.03;100.00;153799.47;4973246;28;20042;-76
2022/11/24 09:44:59;;;;;;;25.95;12.00;;;;;;;5.15;100.00;153827.59;4990519;28;20038;-77
2022/11/24 09:47:51;;;;;;;23.55;9.57;;;;;;;5.27;100.00;153858.25;4989450;28;20034;-77
2022/11/24 09:50:24;;;;;;;27.37;10.47;;;;;;;5.27;100.00;153858.25;4972229;28;20390;-76
2022/11/24 09:53:02;;;;;;;29.52;10.43;;;;;;;5.28;100.00;153859.56;4986914;28;20031;-76
2022/11/24 09:55:35;;;;;;;25.05;9.30;;;;;;;5.25;100.00;153853.13;4990311;28;20073;-78
2022/11/24 09:58:11;;;;;;;27.30;9.40;;;;;;;5.30;100.00;153864.66;4975214;28;20038;-79
2022/11/24 10:00:38;;;;;;;23.15;8.60;;;;;;;5.36;100.00;153881.28;4975046;28;20069;-78
2022/11/24 10:03:04;;;;;;;25.00;9.30;;;;;;;5.51;100.00;153917.09;4990212;28;20038;-77
2022/11/24 10:05:34;;;;;;;28.45;8.05;;;;;;;5.65;100.00;153952.84;4969345;28;20198;-79
2022/11/24 10:08:26;;;;;;;28.90;9.73;;;;;;;5.73;100.00;153972.09;4990352;28;20108;-78
2022/11/24 10:11:08;;;;;;;25.55;8.75;;;;;;;5.79;100.00;153987.41;4968260;28;20050;-79
2022/11/24 10:13:51;;;;;;;26.55;9.43;;;;;;;5.89;100.00;154012.97;4990271;28;20431;-77
2022/11/24 10:16:54;;;;;;;28.45;8.73;;;;;;;6.01;100.00;154043.75;4989103;28;20507;-79
2022/11/24 10:19:26;;;;;;;22.52;8.30;;;;;;;6.13;100.00;154073.16;4972566;28;20034;-78
2022/11/24 10:22:06;;;;;;;24.98;7.50;;;;;;;6.19;100.00;154087.22;4974317;28;20053;-79
2022/11/24 10:25:06;;;;;;;21.35;8.05;;;;;;;6.17;100.00;154082.09;4976454;28;20038;-79
2022/11/24 10:27:42;;;;;;;23.23;7.38;;;;;;;6.23;100.00;154098.75;4971282;28;20037;-79
2022/11/24 10:30:14;;;;;;;25.23;7.55;;;;;;;6.23;100.00;154097.44;4973144;28;20042;-79
2022/11/24 10:32:44;;;;;;;28.05;7.75;;;;;;;6.28;100.00;154110.25;4984263;28;20062;-79
2022/11/24 10:35:25;;;;;;;24.48;7.85;;;;;;;6.38;100.00;154134.56;4973950;28;20030;-77
2022/11/24 10:38:06;;;;;;;27.27;8.13;;;;;;;6.36;100.00;154129.44;4972034;28;20038;-79
2022/11/24 10:40:38;;;;;;;23.13;7.22;;;;;;;6.44;100.00;154149.88;4974698;28;20133;-77
2022/11/24 10:43:09;;;;;;;29.58;7.32;;;;;;;6.47;100.00;154157.59;4974804;28;20038;-78
2022/11/24 10:45:36;;;;;;;25.58;6.70;;;;;;;6.46;100.00;154155.06;4971356;28;20057;-79
2022/11/24 10:48:11;;;;;;;26.20;6.93;;;;;;;6.53;100.00;154172.94;4966385;28;20052;-78
2022/11/24 10:50:39;;;;;;;26.80;6.43;;;;;;;6.56;100.00;154180.63;4981851;28;20480;-80
2022/11/24 10:53:07;;;;;;;23.70;6.78;;;;;;;6.66;100.00;154204.91;4982939;28;20041;-79
2022/11/24 10:55:55;;;;;;;26.30;6.95;;;;;;;6.80;100.00;154240.78;4970789;28;20038;-79
2022/11/24 10:58:34;;;;;;;22.92;6.45;;;;;;;6.78;100.00;154234.34;4974533;28;20121;-79
2022/11/24 11:01:12;;;;;;;26.30;6.88;;;;;;;6.80;100.00;154240.78;4974976;28;20034;-77
2022/11/24 11:03:50;;;;;;;24.80;6.13;;;;;;;6.83;100.00;154248.41;4967802;28;20109;-77
2022/11/24 11:06:28;;;;;;;23.98;6.78;;;;;;;6.80;100.00;154240.78;4972406;28;20030;-76
2022/11/24 11:09:05;;;;;;;31.08;6.30;;;;;;;6.78;100.00;154235.66;4975171;28;20045;-79
2022/11/24 11:11:32;;;;;;;21.77;5.50;;;;;;;6.77;100.00;154233.06;4973416;28;20089;-78
2022/11/24 11:14:00;;;;;;;18.55;5.85;;;;;;;6.72;100.00;154219.00;4971216;28;20046;-78
2022/11/24 11:16:42;;;;;;;29.73;6.55;;;;;;;6.76;100.00;154229.22;4965200;28;20135;-79
2022/11/24 11:19:27;;;;;;;28.00;6.63;;;;;;;6.78;100.00;154234.34;4983492;28;20492;-77
2022/11/24 11:22:23;;;;;;;30.48;7.10;;;;;;;6.85;100.00;154252.28;4971987;28;20518;-77
2022/11/24 11:25:03;;;;;;;26.75;6.82;;;;;;;6.84;100.00;154249.72;4996995;28;20046;-79
2022/11/24 11:27:28;;;;;;;24.80;6.85;;;;;;;6.94;100.00;154274.03;4973280;28;20460;-79
2022/11/24 11:30:16;;;;;;;27.80;6.55;;;;;;;6.97;100.00;154283.00;4991659;28;20042;-75
2022/11/24 11:32:59;;;;;;;29.02;6.18;;;;;;;6.99;100.00;154288.13;4973471;28;20050;-78
2022/11/24 11:35:27;;;;;;;24.95;6.32;;;;;;;7.04;100.00;154299.63;4972402;28;20073;-77
2022/11/24 11:37:55;;;;;;;29.70;5.80;;;;;;;7.14;100.00;154323.94;4967870;28;20088;-77
2022/11/24 11:40:25;;;;;;;28.55;6.13;;;;;;;7.33;100.00;154372.59;4950252;28;20610;-76
2022/11/24 11:43:00;;;;;;;29.42;6.03;;;;;;;7.56;100.00;154430.22;4972554;28;20043;-77
2022/11/24 11:45:41;;;;;;;22.65;5.65;;;;;;;7.66;100.00;154453.25;4982337;28;20050;-75
2022/11/24 11:48:31;;;;;;;23.98;5.80;;;;;;;7.89;100.00;154510.88;4955288;28;20496;-76
2022/11/24 11:51:30;;;;;;;21.85;5.28;;;;;;;7.96;100.00;154528.81;4983276;28;20030;-77
2022/11/24 11:54:12;;;;;;;29.60;6.57;;;;;;;7.92;100.00;154518.56;4971781;28;20038;-77
2022/11/24 11:56:44;;;;;;;28.70;5.83;;;;;;;7.99;100.00;154537.78;4962678;28;20049;-76
2022/11/24 11:59:31;;;;;;;27.10;6.23;;;;;;;7.92;100.00;154518.56;4981910;28;20276;-77